Time;durP1;ratioP1;P1;durP2;ratioP2;P2;SDS_P1;SDS_P2;PMS_P1;PMS_P2;Temp;Humidity;BMP_temperature;BMP_pressure;BME280_temperature;BME280_humidity;BME280_pressure;Samples;Min_cycle;Max_cycle;Signal;HPM_P1;HPM_P2
2023/12/30 00:01:45;;;;;;;249.77;233.75;;;11.30;99.90;;;;;;5042020;28;20088;-70
2023/12/30 00:04:11;;;;;;;231.52;216.38;;;11.30;99.90;;;;;;5052534;28;20041;-70
2023/12/30 00:06:37;;;;;;;249.93;233.38;;;11.30;99.90;;;;;;5045626;28;20021;-70
2023/12/30 00:09:03;;;;;;;240.57;225.45;;;11.30;99.90;;;;;;5033903;28;20049;-70
2023/12/30 00:11:30;;;;;;;216.23;202.25;;;11.30;99.90;;;;;;5034710;28;20464;-70
2023/12/30 00:13:56;;;;;;;174.60;161.48;;;11.40;99.90;;;;;;5041950;28;20032;-70
2023/12/30 00:16:22;;;;;;;219.52;204.45;;;11.50;99.90;;;;;;5048862;28;20475;-70
2023/12/30 00:18:48;;;;;;;290.02;270.50;;;11.60;99.90;;;;;;5055047;28;20048;-70
2023/12/30 00:21:21;;;;;;;295.42;276.10;;;11.60;99.90;;;;;;5044959;28;20033;-70
2023/12/30 00:23:47;;;;;;;238.32;222.38;;;11.60;99.90;;;;;;5034861;28;20038;-70
2023/12/30 00:26:23;;;;;;;235.60;219.75;;;11.60;99.90;;;;;;5017352;28;20037;-70
2023/12/30 00:28:49;;;;;;;179.32;166.48;;;11.70;99.90;;;;;;5035142;28;20487;-70
2023/12/30 00:31:26;;;;;;;178.10;165.98;;;11.60;99.90;;;;;;5038576;28;20050;-74
2023/12/30 00:33:54;;;;;;;209.38;193.95;;;11.70;99.90;;;;;;5033821;28;20033;-73
2023/12/30 00:36:20;;;;;;;236.32;220.25;;;11.70;99.90;;;;;;5034285;28;20025;-74
2023/12/30 00:38:47;;;;;;;252.35;236.05;;;11.60;99.90;;;;;;5033481;28;20041;-74
2023/12/30 00:41:13;;;;;;;270.38;252.40;;;11.60;99.90;;;;;;5033582;28;20041;-73
2023/12/30 00:43:43;;;;;;;310.48;289.48;;;11.60;99.90;;;;;;5048352;28;20041;-74
2023/12/30 00:46:09;;;;;;;264.83;247.65;;;11.60;99.90;;;;;;5035395;28;20506;-73
2023/12/30 00:48:35;;;;;;;279.60;260.98;;;11.60;99.90;;;;;;5052708;28;20045;-74
2023/12/30 00:51:01;;;;;;;273.50;256.42;;;11.60;99.90;;;;;;5045387;28;20033;-73
2023/12/30 00:53:28;;;;;;;272.27;254.50;;;11.60;99.90;;;;;;5032981;28;20030;-73
2023/12/30 00:55:54;;;;;;;271.40;254.27;;;11.60;99.90;;;;;;5033810;28;20033;-74
2023/12/30 00:58:20;;;;;;;267.45;249.70;;;11.70;99.90;;;;;;5040862;28;20060;-74
2023/12/30 01:00:47;;;;;;;248.18;232.32;;;11.70;99.90;;;;;;5031954;28;20038;-73
2023/12/30 01:03:13;;;;;;;235.45;219.85;;;11.70;99.90;;;;;;5043803;28;20045;-73
2023/12/30 01:05:39;;;;;;;181.38;169.15;;;11.70;99.90;;;;;;5049462;28;20056;-73
2023/12/30 01:08:05;;;;;;;188.30;175.88;;;11.80;99.90;;;;;;5038220;28;20037;-73
2023/12/30 01:10:31;;;;;;;179.57;168.50;;;11.70;99.90;;;;;;5046414;28;20044;-74
2023/12/30 01:12:57;;;;;;;185.20;173.80;;;11.70;99.90;;;;;;5036532;28;20032;-74
2023/12/30 01:15:23;;;;;;;181.77;170.00;;;11.60;99.90;;;;;;5048575;28;20387;-74
2023/12/30 01:17:49;;;;;;;202.93;190.10;;;11.60;99.90;;;;;;5052511;28;20029;-74
2023/12/30 01:20:16;;;;;;;205.65;192.75;;;11.60;99.90;;;;;;5052466;28;20060;-74
2023/12/30 01:22:42;;;;;;;189.23;177.23;;;11.70;99.90;;;;;;5034258;28;20048;-74
2023/12/30 01:25:08;;;;;;;178.43;167.00;;;11.60;99.90;;;;;;5032748;28;20073;-74
2023/12/30 01:27:34;;;;;;;193.48;181.60;;;11.60;99.90;;;;;;5032297;28;20037;-74
2023/12/30 01:30:00;;;;;;;196.07;183.82;;;11.60;99.90;;;;;;5033694;28;20029;-74
2023/12/30 01:32:26;;;;;;;201.18;188.48;;;11.60;99.90;;;;;;5034627;28;20037;-73
2023/12/30 01:34:52;;;;;;;211.63;198.68;;;11.60;99.90;;;;;;5044697;28;20045;-73
2023/12/30 01:37:18;;;;;;;198.65;185.98;;;11.60;99.90;;;;;;5044723;28;20032;-72
2023/12/30 01:39:44;;;;;;;220.00;206.60;;;11.70;99.90;;;;;;5052851;28;20501;-73
2023/12/30 01:42:11;;;;;;;253.18;237.48;;;11.70;99.90;;;;;;5036771;28;20042;-73
2023/12/30 01:44:37;;;;;;;253.98;238.88;;;11.80;99.90;;;;;;5051791;28;20124;-73
2023/12/30 01:47:04;;;;;;;276.67;258.95;;;11.80;99.90;;;;;;5045154;28;20037;-72
2023/12/30 01:49:30;;;;;;;243.50;228.25;;;11.80;99.90;;;;;;5034153;28;20029;-73
2023/12/30 01:51:56;;;;;;;243.55;227.75;;;11.90;99.90;;;;;;5033423;28;20383;-72
2023/12/30 01:54:22;;;;;;;297.15;278.15;;;11.80;99.90;;;;;;5031702;28;20033;-73
2023/12/30 01:56:49;;;;;;;290.55;272.23;;;11.80;99.90;;;;;;5045774;28;20387;-72
2023/12/30 01:59:15;;;;;;;284.88;267.15;;;11.80;99.90;;;;;;5052741;28;20479;-73
2023/12/30 02:01:41;;;;;;;289.50;271.00;;;11.80;99.90;;;;;;5024849;28;20399;-73
2023/12/30 02:04:07;;;;;;;293.67;275.00;;;11.80;99.90;;;;;;5041533;28;20026;-72
2023/12/30 02:06:33;;;;;;;290.85;272.80;;;11.80;99.90;;;;;;5043086;28;20033;-73
2023/12/30 02:09:02;;;;;;;269.80;252.60;;;11.90;99.90;;;;;;5052484;28;20036;-73
2023/12/30 02:11:28;;;;;;;333.52;311.98;;;11.80;99.90;;;;;;5040946;28;20046;-73
2023/12/30 02:13:54;;;;;;;272.85;255.80;;;11.80;99.90;;;;;;5032295;28;20038;-73
2023/12/30 02:16:20;;;;;;;268.13;252.25;;;11.80;99.90;;;;;;5037553;28;20404;-73
2023/12/30 02:18:46;;;;;;;326.95;305.77;;;11.90;99.90;;;;;;5032541;28;20034;-72
2023/12/30 02:21:12;;;;;;;293.63;274.40;;;11.90;99.90;;;;;;5035692;28;20582;-73
2023/12/30 02:23:38;;;;;;;346.27;324.38;;;11.90;99.90;;;;;;5032661;28;20037;-73
2023/12/30 02:26:07;;;;;;;328.75;307.65;;;11.80;99.90;;;;;;5037492;28;20485;-73
2023/12/30 02:28:34;;;;;;;290.50;272.15;;;11.80;99.90;;;;;;5031070;28;20429;-73
2023/12/30 02:31:00;;;;;;;298.52;279.50;;;11.70;99.90;;;;;;5036213;28;20029;-73
2023/12/30 02:33:26;;;;;;;330.67;310.42;;;11.80;99.90;;;;;;5041792;28;20030;-72
2023/12/30 02:35:52;;;;;;;291.10;272.85;;;11.70;99.90;;;;;;5037327;28;20037;-73
2023/12/30 02:38:18;;;;;;;290.38;271.60;;;11.70;99.90;;;;;;5031659;28;20033;-74
2023/12/30 02:40:45;;;;;;;308.02;288.98;;;11.70;99.90;;;;;;5036883;28;20029;-74
2023/12/30 02:43:11;;;;;;;320.30;300.50;;;11.80;99.90;;;;;;5030822;28;20404;-74
2023/12/30 02:45:37;;;;;;;329.45;307.90;;;11.80;99.90;;;;;;5031092;28;20044;-74
2023/12/30 02:48:03;;;;;;;282.08;265.65;;;11.70;99.90;;;;;;5043007;28;20057;-74
2023/12/30 02:50:29;;;;;;;290.92;273.73;;;11.80;99.90;;;;;;5036282;28;20060;-74
2023/12/30 02:52:55;;;;;;;237.18;222.63;;;11.70;99.90;;;;;;5031357;28;20045;-74
2023/12/30 02:55:22;;;;;;;196.73;185.32;;;11.80;99.90;;;;;;5034749;28;20032;-74
2023/12/30 02:57:48;;;;;;;176.25;165.98;;;11.70;99.90;;;;;;5033124;28;20036;-74
2023/12/30 03:00:14;;;;;;;229.27;215.55;;;11.70;99.90;;;;;;5035937;28;20025;-74
2023/12/30 03:02:41;;;;;;;273.90;257.45;;;11.80;99.90;;;;;;5042847;28;20049;-74
2023/12/30 03:05:08;;;;;;;295.58;276.90;;;11.80;99.90;;;;;;5052156;28;20036;-74
2023/12/30 03:07:36;;;;;;;298.38;280.23;;;11.80;99.90;;;;;;5030471;28;20072;-74
2023/12/30 03:10:04;;;;;;;261.73;245.18;;;11.90;99.90;;;;;;5031557;28;20372;-74
2023/12/30 03:12:30;;;;;;;258.00;241.77;;;11.80;99.90;;;;;;5032034;28;20455;-74
2023/12/30 03:14:56;;;;;;;262.60;246.10;;;11.70;99.90;;;;;;5039666;28;20447;-74
2023/12/30 03:17:22;;;;;;;295.33;277.13;;;11.60;99.90;;;;;;5031501;28;20045;-74
2023/12/30 03:19:48;;;;;;;239.85;225.05;;;11.60;99.90;;;;;;5036892;28;20057;-74
2023/12/30 03:22:15;;;;;;;211.80;199.07;;;11.60;99.90;;;;;;5044081;28;20501;-74
2023/12/30 03:24:41;;;;;;;204.23;192.02;;;11.60;99.90;;;;;;5050554;28;20037;-74
2023/12/30 03:27:08;;;;;;;222.10;208.75;;;11.60;99.90;;;;;;5047067;28;20041;-74
2023/12/30 03:29:34;;;;;;;226.80;212.93;;;11.60;99.90;;;;;;5044594;28;20422;-74
2023/12/30 03:32:00;;;;;;;261.27;245.07;;;11.70;99.90;;;;;;5034759;28;20032;-74
2023/12/30 03:34:26;;;;;;;224.43;210.63;;;11.60;99.90;;;;;;5046618;28;20395;-74
2023/12/30 03:36:52;;;;;;;272.40;255.43;;;11.60;99.90;;;;;;5040225;28;20051;-74
2023/12/30 03:39:18;;;;;;;268.67;251.40;;;11.60;99.90;;;;;;5050801;28;20053;-70
2023/12/30 03:41:44;;;;;;;266.60;250.48;;;11.60;99.90;;;;;;5047404;28;20025;-70
2023/12/30 03:44:10;;;;;;;255.15;239.32;;;11.60;99.90;;;;;;5050526;28;20053;-70
2023/12/30 03:46:36;;;;;;;234.18;219.25;;;11.70;99.90;;;;;;5040784;28;20041;-70
2023/12/30 03:49:02;;;;;;;224.88;210.70;;;11.70;99.90;;;;;;5046600;28;20037;-70
2023/12/30 03:51:29;;;;;;;258.40;242.50;;;11.60;99.90;;;;;;5031117;28;20040;-70
2023/12/30 03:53:55;;;;;;;254.05;238.50;;;11.70;99.90;;;;;;5039614;28;20029;-71
2023/12/30 03:56:21;;;;;;;243.30;228.07;;;11.70;99.90;;;;;;5038883;28;20032;-70
2023/12/30 03:58:47;;;;;;;218.05;204.55;;;11.60;99.90;;;;;;5046633;28;20037;-70
2023/12/30 04:01:13;;;;;;;216.93;203.63;;;11.70;99.90;;;;;;5048466;28;20048;-70
2023/12/30 04:03:39;;;;;;;234.45;220.40;;;11.70;99.90;;;;;;5049334;28;20569;-70
2023/12/30 04:06:05;;;;;;;245.23;230.20;;;11.70;99.90;;;;;;5047328;28;20033;-70
2023/12/30 04:08:32;;;;;;;397.30;370.60;;;11.80;99.90;;;;;;5032921;28;20033;-70
2023/12/30 04:10:58;;;;;;;405.88;378.90;;;11.80;99.90;;;;;;5043748;28;20022;-70
2023/12/30 04:13:24;;;;;;;166.55;156.00;;;11.80;99.90;;;;;;5047607;28;20033;-70
2023/12/30 04:15:51;;;;;;;258.20;241.77;;;11.80;99.90;;;;;;5045312;28;20060;-70
2023/12/30 04:18:17;;;;;;;193.85;182.38;;;11.80;99.90;;;;;;5030814;28;20034;-70
2023/12/30 04:20:43;;;;;;;292.73;273.27;;;11.80;99.90;;;;;;5043191;28;20360;-70
2023/12/30 04:23:09;;;;;;;317.27;296.20;;;11.80;99.90;;;;;;5044789;28;20041;-70
2023/12/30 04:25:35;;;;;;;432.40;402.85;;;11.70;99.90;;;;;;5046383;28;20471;-70
2023/12/30 04:28:01;;;;;;;414.17;386.15;;;11.70;99.90;;;;;;5038669;28;20051;-70
2023/12/30 04:30:27;;;;;;;280.20;262.50;;;11.70;99.90;;;;;;5050450;28;20045;-70
2023/12/30 04:32:53;;;;;;;240.85;225.57;;;11.70;99.90;;;;;;5049095;28;20036;-70
2023/12/30 04:35:20;;;;;;;208.32;196.27;;;11.70;99.90;;;;;;5048007;28;20416;-70
2023/12/30 04:37:46;;;;;;;199.00;187.25;;;11.70;99.90;;;;;;5044953;28;20052;-70
2023/12/30 04:40:12;;;;;;;180.68;170.45;;;11.60;99.90;;;;;;5052850;28;20092;-70
2023/12/30 04:42:38;;;;;;;192.73;181.88;;;11.60;99.90;;;;;;5035009;28;20040;-70
2023/12/30 04:45:05;;;;;;;198.77;186.80;;;11.50;99.90;;;;;;5034006;28;20041;-70
2023/12/30 04:47:31;;;;;;;210.93;198.60;;;11.50;99.90;;;;;;5034864;28;20032;-70
2023/12/30 04:49:57;;;;;;;227.90;215.00;;;11.50;99.90;;;;;;5033432;28;20030;-70
2023/12/30 04:52:23;;;;;;;211.45;198.88;;;11.50;99.90;;;;;;5032814;28;20052;-70
2023/12/30 04:54:49;;;;;;;222.20;209.23;;;11.50;99.90;;;;;;5048711;28;20033;-70
2023/12/30 04:57:15;;;;;;;252.98;238.40;;;11.60;99.90;;;;;;5044381;28;20060;-74
2023/12/30 04:59:41;;;;;;;221.73;208.57;;;11.60;99.90;;;;;;5034253;28;20028;-74
2023/12/30 05:02:07;;;;;;;244.43;230.27;;;11.60;99.90;;;;;;5042229;28;20037;-73
2023/12/30 05:04:33;;;;;;;258.92;244.10;;;11.60;99.90;;;;;;5045387;28;20033;-73
2023/12/30 05:06:59;;;;;;;215.50;202.43;;;11.70;99.90;;;;;;5039215;28;20025;-73
2023/12/30 05:09:25;;;;;;;238.40;224.93;;;11.70;99.90;;;;;;5038858;28;20029;-73
2023/12/30 05:11:52;;;;;;;210.75;198.52;;;11.80;99.90;;;;;;5035531;28;20033;-73
2023/12/30 05:14:19;;;;;;;239.48;225.45;;;11.70;99.90;;;;;;5040024;28;20029;-74
2023/12/30 05:16:46;;;;;;;210.23;198.30;;;11.70;99.90;;;;;;5039558;28;20044;-74
2023/12/30 05:19:12;;;;;;;219.30;203.60;;;11.70;99.90;;;;;;5034179;28;20026;-73
2023/12/30 05:21:38;;;;;;;301.20;223.77;;;11.70;99.90;;;;;;5027770;28;20025;-73
2023/12/30 05:24:05;;;;;;;213.60;201.25;;;11.70;99.90;;;;;;5051944;28;20087;-74
2023/12/30 05:26:31;;;;;;;193.73;182.88;;;11.70;99.90;;;;;;5032064;28;20030;-73
2023/12/30 05:28:57;;;;;;;190.70;179.52;;;11.70;99.90;;;;;;5016303;28;20610;-73
2023/12/30 05:31:24;;;;;;;197.20;186.25;;;11.70;99.90;;;;;;5043439;28;20036;-73
2023/12/30 05:33:50;;;;;;;188.77;177.98;;;11.70;99.90;;;;;;5050795;28;20033;-74
2023/12/30 05:36:16;;;;;;;234.32;190.63;;;11.70;99.90;;;;;;5043380;28;20037;-73
2023/12/30 05:38:42;;;;;;;204.65;193.30;;;11.70;99.90;;;;;;5031689;28;20384;-73
2023/12/30 05:41:08;;;;;;;197.82;181.07;;;11.70;99.90;;;;;;5047278;28;20033;-74
2023/12/30 05:43:34;;;;;;;215.20;203.52;;;11.70;99.90;;;;;;5051710;28;20410;-73
2023/12/30 05:46:00;;;;;;;224.25;211.32;;;11.70;99.90;;;;;;5045608;28;20037;-74
2023/12/30 05:48:26;;;;;;;197.20;185.60;;;11.70;99.90;;;;;;5043595;28;20395;-74
2023/12/30 05:50:53;;;;;;;227.00;214.20;;;11.60;99.90;;;;;;5042579;28;20061;-74
2023/12/30 05:53:19;;;;;;;172.88;163.25;;;11.60;99.90;;;;;;5036655;28;20379;-74
2023/12/30 05:55:45;;;;;;;194.45;183.23;;;11.50;99.90;;;;;;5035746;28;20025;-74
2023/12/30 05:58:11;;;;;;;191.48;180.60;;;11.50;99.90;;;;;;5045242;28;20063;-74
2023/12/30 06:00:37;;;;;;;214.85;203.55;;;11.50;99.90;;;;;;5035466;28;20033;-74
2023/12/30 06:03:03;;;;;;;182.05;172.32;;;11.50;99.90;;;;;;5051391;28;20041;-75
2023/12/30 06:05:29;;;;;;;192.45;181.88;;;11.50;99.90;;;;;;5039750;28;20041;-72
2023/12/30 06:07:55;;;;;;;194.35;183.85;;;11.60;99.90;;;;;;5043223;28;20029;-73
2023/12/30 06:10:22;;;;;;;222.98;210.55;;;11.60;99.90;;;;;;5037384;28;20037;-72
2023/12/30 06:12:48;;;;;;;306.05;287.13;;;11.60;99.90;;;;;;5033467;28;20052;-72
2023/12/30 06:15:14;;;;;;;253.52;238.60;;;11.60;99.90;;;;;;5047300;28;20040;-73
2023/12/30 06:17:41;;;;;;;320.35;301.25;;;11.70;99.90;;;;;;5037606;28;20021;-72
2023/12/30 06:20:09;;;;;;;360.35;337.02;;;11.60;99.90;;;;;;5045358;28;20420;-72
2023/12/30 06:22:35;;;;;;;358.90;335.30;;;11.70;99.90;;;;;;5033079;28;20044;-73
2023/12/30 06:25:03;;;;;;;399.20;372.30;;;11.70;99.90;;;;;;5033121;28;20463;-73
2023/12/30 06:27:29;;;;;;;308.85;288.95;;;11.80;99.90;;;;;;5048092;28;20045;-73
2023/12/30 06:29:55;;;;;;;300.30;281.33;;;11.80;99.90;;;;;;5045768;28;20033;-73
2023/12/30 06:32:21;;;;;;;367.20;343.15;;;11.90;99.90;;;;;;5035174;28;20041;-73
2023/12/30 06:34:47;;;;;;;356.10;332.90;;;11.90;99.90;;;;;;5040243;28;20029;-73
2023/12/30 06:37:13;;;;;;;367.02;342.50;;;12.00;99.90;;;;;;5043991;28;20033;-72
2023/12/30 06:39:40;;;;;;;413.70;385.88;;;12.00;99.90;;;;;;5033267;28;20033;-73
2023/12/30 06:42:06;;;;;;;339.85;318.05;;;11.90;99.90;;;;;;5033923;28;20033;-72
2023/12/30 06:44:32;;;;;;;221.25;208.98;;;11.90;99.90;;;;;;5032784;28;20060;-73
2023/12/30 06:46:58;;;;;;;403.13;377.50;;;12.00;99.90;;;;;;5033656;28;20037;-73
2023/12/30 06:49:24;;;;;;;444.42;415.95;;;11.90;99.90;;;;;;5040198;28;20036;-72
2023/12/30 06:51:50;;;;;;;472.40;441.73;;;11.90;99.90;;;;;;5032507;28;20049;-73
2023/12/30 06:54:16;;;;;;;453.13;423.67;;;11.90;99.90;;;;;;5049808;28;20395;-72
2023/12/30 06:56:44;;;;;;;359.50;336.38;;;11.90;99.90;;;;;;5037597;28;20052;-73
2023/12/30 06:59:10;;;;;;;546.53;509.42;;;11.90;99.90;;;;;;5032353;28;20463;-73
2023/12/30 07:01:39;;;;;;;356.77;332.77;;;11.90;99.90;;;;;;5039427;28;20037;-73
2023/12/30 07:04:05;;;;;;;553.80;516.20;;;11.90;99.90;;;;;;5052082;28;20422;-73
2023/12/30 07:06:31;;;;;;;568.60;529.38;;;11.90;99.90;;;;;;5037161;28;20036;-72
2023/12/30 07:08:57;;;;;;;291.73;272.52;;;11.90;99.90;;;;;;5031718;28;20052;-70
2023/12/30 07:11:23;;;;;;;274.70;256.92;;;11.90;99.90;;;;;;5031489;28;20049;-70
2023/12/30 07:13:49;;;;;;;403.38;376.33;;;11.90;99.90;;;;;;5031720;28;20041;-71
2023/12/30 07:16:15;;;;;;;380.23;355.67;;;11.90;99.90;;;;;;5039293;28;20071;-71
2023/12/30 07:18:41;;;;;;;397.73;372.63;;;11.80;99.90;;;;;;5051681;28;20048;-71
2023/12/30 07:21:07;;;;;;;187.90;177.85;;;11.80;99.90;;;;;;5044593;28;20037;-71
2023/12/30 07:23:34;;;;;;;150.52;142.38;;;11.80;99.90;;;;;;5031950;28;20053;-71
2023/12/30 07:26:00;;;;;;;162.63;153.65;;;11.80;99.90;;;;;;5032413;28;20029;-70
2023/12/30 07:28:26;;;;;;;167.15;158.00;;;11.90;99.90;;;;;;5032050;28;20047;-70
2023/12/30 07:30:52;;;;;;;181.50;171.68;;;11.90;99.90;;;;;;5036422;28;20041;-70
2023/12/30 07:33:18;;;;;;;172.45;163.05;;;11.90;99.90;;;;;;5051837;28;20041;-70
2023/12/30 07:35:44;;;;;;;195.40;184.70;;;11.90;99.90;;;;;;5044839;28;20026;-71
2023/12/30 07:38:10;;;;;;;218.75;206.70;;;11.70;99.90;;;;;;5031868;28;20044;-70
2023/12/30 07:40:36;;;;;;;262.48;248.30;;;11.70;99.90;;;;;;5031869;28;20026;-72
2023/12/30 07:43:02;;;;;;;252.20;238.75;;;11.60;99.90;;;;;;5031656;28;20476;-71
2023/12/30 07:45:28;;;;;;;194.30;183.90;;;11.40;99.90;;;;;;5034136;28;20403;-71
2023/12/30 07:47:55;;;;;;;180.95;171.02;;;11.40;99.90;;;;;;5051772;28;20040;-71
2023/12/30 07:50:22;;;;;;;199.00;188.30;;;11.40;99.90;;;;;;5051888;28;20037;-71
2023/12/30 07:52:48;;;;;;;194.18;183.88;;;11.40;99.90;;;;;;5051523;28;20399;-71
2023/12/30 07:55:14;;;;;;;196.27;186.00;;;11.40;99.90;;;;;;5034042;28;20034;-71
2023/12/30 07:57:40;;;;;;;157.00;148.18;;;11.50;99.90;;;;;;5045954;28;20032;-71
2023/12/30 08:00:07;;;;;;;143.80;135.60;;;11.50;99.90;;;;;;5050665;28;20036;-72
2023/12/30 08:02:33;;;;;;;189.32;179.23;;;11.40;99.90;;;;;;5048004;28;20021;-71
2023/12/30 08:05:00;;;;;;;181.50;171.45;;;11.50;99.90;;;;;;5043714;28;20060;-71
2023/12/30 08:07:26;;;;;;;196.15;185.73;;;11.50;99.90;;;;;;5046652;28;20399;-71
2023/12/30 08:09:52;;;;;;;160.43;151.65;;;11.50;99.90;;;;;;5050422;28;20414;-73
2023/12/30 08:12:18;;;;;;;174.35;164.63;;;11.60;99.90;;;;;;5046831;28;20042;-73
2023/12/30 08:14:44;;;;;;;174.05;164.48;;;11.50;99.90;;;;;;5050051;28;20383;-73
2023/12/30 08:17:11;;;;;;;174.23;164.65;;;11.50;99.90;;;;;;5038308;28;20034;-72
2023/12/30 08:19:37;;;;;;;176.95;167.35;;;11.50;99.90;;;;;;5045421;28;20360;-72
2023/12/30 08:22:03;;;;;;;184.32;174.18;;;11.50;99.90;;;;;;5055353;28;20065;-72
2023/12/30 08:24:29;;;;;;;172.00;162.23;;;11.40;99.90;;;;;;5054015;28;20040;-72
2023/12/30 08:26:55;;;;;;;235.57;221.88;;;11.40;99.90;;;;;;5049462;28;20468;-72
2023/12/30 08:29:21;;;;;;;222.95;209.98;;;11.60;99.90;;;;;;5041987;28;20134;-72
2023/12/30 08:31:47;;;;;;;188.05;177.30;;;11.70;99.90;;;;;;5033332;28;20041;-72
2023/12/30 08:34:16;;;;;;;186.35;175.65;;;11.80;99.90;;;;;;5035396;28;20032;-72
2023/12/30 08:36:42;;;;;;;194.70;183.02;;;11.80;99.90;;;;;;5036652;28;20048;-71
2023/12/30 08:39:08;;;;;;;223.38;210.60;;;11.80;99.90;;;;;;5055091;28;20490;-72
2023/12/30 08:41:35;;;;;;;204.02;192.02;;;11.90;99.90;;;;;;5034467;28;20033;-72
2023/12/30 08:44:02;;;;;;;459.98;223.48;;;11.80;99.90;;;;;;5034509;28;20155;-72
2023/12/30 08:46:28;;;;;;;195.35;184.45;;;11.90;99.90;;;;;;5040581;28;20037;-71
2023/12/30 08:48:54;;;;;;;204.18;193.15;;;11.80;99.90;;;;;;5054788;28;20044;-71
2023/12/30 08:51:20;;;;;;;254.82;240.18;;;11.70;99.90;;;;;;5043637;28;20376;-72
2023/12/30 08:53:46;;;;;;;179.75;169.63;;;11.70;99.90;;;;;;5034814;28;20034;-71
2023/12/30 08:56:12;;;;;;;170.57;160.82;;;11.80;99.90;;;;;;5038512;28;20056;-71
2023/12/30 08:58:38;;;;;;;143.88;135.43;;;11.80;99.90;;;;;;5047224;28;20040;-72
2023/12/30 09:01:05;;;;;;;151.95;143.10;;;11.90;99.90;;;;;;5037520;28;20038;-71
2023/12/30 09:03:32;;;;;;;168.23;158.70;;;11.90;99.90;;;;;;5052784;28;20028;-71
2023/12/30 09:05:58;;;;;;;203.82;192.40;;;12.00;99.90;;;;;;5034584;28;20356;-71
2023/12/30 09:08:24;;;;;;;223.70;210.70;;;12.00;99.90;;;;;;5034589;28;20025;-71
2023/12/30 09:10:50;;;;;;;206.25;194.38;;;12.00;99.90;;;;;;5034187;28;20058;-71
2023/12/30 09:13:16;;;;;;;219.82;207.57;;;12.10;99.90;;;;;;5036428;28;20033;-72
2023/12/30 09:15:42;;;;;;;213.93;201.65;;;12.10;99.90;;;;;;5033682;28;20057;-71
2023/12/30 09:18:08;;;;;;;205.88;194.38;;;12.10;99.90;;;;;;5034461;28;20030;-71
2023/12/30 09:20:34;;;;;;;192.30;181.50;;;12.10;99.90;;;;;;5034060;28;20040;-71
2023/12/30 09:23:00;;;;;;;189.80;178.77;;;12.10;99.90;;;;;;5034087;28;20033;-71
2023/12/30 09:25:28;;;;;;;183.50;172.80;;;12.10;99.90;;;;;;5033807;28;20037;-71
2023/12/30 09:27:54;;;;;;;184.48;173.50;;;12.20;99.90;;;;;;5032899;28;20186;-71
2023/12/30 09:30:20;;;;;;;190.43;179.77;;;12.20;99.90;;;;;;5042685;28;20036;-71
2023/12/30 09:32:46;;;;;;;219.00;206.23;;;12.20;99.90;;;;;;5033726;28;20491;-76
2023/12/30 09:35:12;;;;;;;192.20;181.05;;;12.20;99.90;;;;;;5032985;28;20030;-71
2023/12/30 09:37:38;;;;;;;190.00;179.00;;;12.30;99.90;;;;;;5033414;28;20403;-72
2023/12/30 09:40:05;;;;;;;187.43;177.00;;;12.40;99.90;;;;;;5033843;28;20033;-72
2023/12/30 09:42:31;;;;;;;204.48;193.07;;;12.50;99.90;;;;;;5033175;28;20526;-72
2023/12/30 09:44:58;;;;;;;221.07;208.75;;;12.60;99.90;;;;;;5033717;28;20052;-72
2023/12/30 09:47:24;;;;;;;200.13;188.93;;;12.60;99.90;;;;;;5032187;28;20041;-72
2023/12/30 09:49:50;;;;;;;242.23;228.98;;;12.70;99.90;;;;;;5032795;28;20060;-72
2023/12/30 09:52:16;;;;;;;264.38;249.63;;;12.80;99.90;;;;;;5033370;28;20479;-68
2023/12/30 09:54:42;;;;;;;226.70;214.57;;;12.90;99.90;;;;;;5032556;28;20033;-66
2023/12/30 09:57:09;;;;;;;254.70;240.52;;;12.90;99.90;;;;;;5032966;28;20037;-66
2023/12/30 09:59:39;;;;;;;215.75;203.90;;;12.90;99.90;;;;;;5032565;28;20437;-69
2023/12/30 10:02:06;;;;;;;259.90;245.00;;;12.90;99.90;;;;;;5031162;28;20045;-76
2023/12/30 10:04:33;;;;;;;262.20;247.65;;;12.90;99.90;;;;;;5043970;28;20060;-68
2023/12/30 10:06:59;;;;;;;254.32;240.10;;;12.90;99.90;;;;;;5038356;28;20029;-68
2023/12/30 10:09:25;;;;;;;200.95;189.85;;;13.00;99.90;;;;;;5033239;28;20476;-68
2023/12/30 10:11:51;;;;;;;175.52;166.10;;;13.00;99.90;;;;;;5031609;28;20423;-70
2023/12/30 10:14:17;;;;;;;266.92;252.82;;;12.90;99.90;;;;;;5032967;28;20049;-70
2023/12/30 10:16:43;;;;;;;188.57;178.65;;;12.90;99.90;;;;;;5032592;28;20400;-70
2023/12/30 10:19:10;;;;;;;213.25;200.27;;;13.00;99.90;;;;;;5033231;28;20033;-70
2023/12/30 10:21:39;;;;;;;304.13;286.23;;;13.10;99.90;;;;;;5032912;28;20044;-70
2023/12/30 10:24:06;;;;;;;340.83;320.85;;;13.00;99.90;;;;;;5032748;28;20053;-70
2023/12/30 10:26:33;;;;;;;228.93;215.48;;;13.10;99.90;;;;;;5032482;28;20037;-70
2023/12/30 10:28:59;;;;;;;232.15;219.48;;;13.20;99.90;;;;;;5032010;28;20038;-70
2023/12/30 10:31:25;;;;;;;306.00;288.38;;;13.20;99.90;;;;;;5031357;28;20049;-73
2023/12/30 10:33:52;;;;;;;258.20;242.25;;;13.30;99.90;;;;;;5040043;28;20044;-73
2023/12/30 10:36:18;;;;;;;172.23;161.95;;;13.30;99.90;;;;;;5043236;28;20037;-73
2023/12/30 10:38:45;;;;;;;214.45;202.27;;;13.20;99.90;;;;;;5031517;28;20034;-73
2023/12/30 10:41:12;;;;;;;295.70;278.60;;;13.30;99.90;;;;;;5035026;28;20049;-73
2023/12/30 10:43:38;;;;;;;201.93;190.57;;;13.30;99.90;;;;;;5033709;28;20040;-73
2023/12/30 10:46:12;;;;;;;184.73;174.38;;;13.40;99.90;;;;;;5021489;28;20105;-72
2023/12/30 10:48:49;;;;;;;189.20;178.52;;;13.40;99.90;;;;;;5043922;28;20392;-72
2023/12/30 10:51:15;;;;;;;254.10;239.98;;;13.40;99.90;;;;;;5031961;28;20372;-73
2023/12/30 10:53:44;;;;;;;1999.90;999.90;;;13.50;99.90;;;;;;5051961;28;20040;-72
2023/12/30 10:56:11;;;;;;;1999.90;999.90;;;13.50;99.90;;;;;;5029947;28;20037;-74
2023/12/30 10:58:39;;;;;;;1999.90;999.90;;;13.40;99.90;;;;;;5032468;28;20463;-73
2023/12/30 11:01:05;;;;;;;1999.90;999.90;;;13.40;99.90;;;;;;5018929;28;20033;-74
2023/12/30 11:03:32;;;;;;;1999.90;999.90;;;13.30;99.90;;;;;;5035062;28;20032;-76
2023/12/30 11:06:10;;;;;;;1999.90;999.90;;;13.20;99.90;;;;;;5046242;28;20038;-75
2023/12/30 11:08:36;;;;;;;1999.90;999.90;;;13.20;99.90;;;;;;5050401;28;20383;-76
2023/12/30 11:11:03;;;;;;;1130.88;624.13;;;13.30;99.90;;;;;;5045109;28;20037;-75
2023/12/30 11:13:36;;;;;;;1999.90;999.90;;;13.20;99.90;;;;;;5041415;28;20029;-74
2023/12/30 11:16:18;;;;;;;197.10;186.82;;;13.30;99.90;;;;;;5043740;28;20037;-74
2023/12/30 11:18:52;;;;;;;1999.90;999.90;;;13.30;99.90;;;;;;5051947;28;20403;-73
2023/12/30 11:21:33;;;;;;;1999.90;999.90;;;13.40;99.90;;;;;;5031817;28;20034;-73
2023/12/30 11:24:00;;;;;;;;;;;13.40;99.90;;;;;;5033572;28;20479;-74
2023/12/30 11:26:30;;;;;;;661.28;403.10;;;13.40;99.90;;;;;;5030965;28;20397;-74
2023/12/30 11:29:03;;;;;;;1999.90;999.90;;;13.40;99.90;;;;;;5030359;28;20044;-73
2023/12/30 11:31:35;;;;;;;1999.90;999.90;;;13.40;99.90;;;;;;5029029;28;20060;-73
2023/12/30 11:34:01;;;;;;;1999.90;999.90;;;13.40;99.90;;;;;;5035208;28;20052;-75
2023/12/30 11:36:28;;;;;;;1999.90;999.90;;;13.50;99.90;;;;;;5042383;28;20029;-69
2023/12/30 11:38:55;;;;;;;1999.90;999.90;;;13.60;99.90;;;;;;5035335;28;20033;-74
2023/12/30 11:41:22;;;;;;;1999.90;999.90;;;13.60;99.90;;;;;;5020373;28;20036;-74
2023/12/30 11:43:49;;;;;;;1999.90;999.90;;;13.60;99.90;;;;;;5033061;28;20511;-73
2023/12/30 11:46:15;;;;;;;1999.90;999.90;;;13.60;99.90;;;;;;5034327;28;20041;-73
2023/12/30 11:48:42;;;;;;;1999.90;999.90;;;13.60;99.90;;;;;;5055721;28;20032;-73
2023/12/30 11:51:09;;;;;;;1999.90;999.90;;;13.60;99.90;;;;;;5045392;28;20036;-74
2023/12/30 11:53:35;;;;;;;1999.90;999.90;;;13.60;99.90;;;;;;5041191;28;20044;-74
2023/12/30 11:56:02;;;;;;;1999.90;999.90;;;13.60;99.90;;;;;;5043443;28;20034;-73
2023/12/30 11:58:31;;;;;;;1999.90;999.90;;;13.60;99.90;;;;;;5050839;28;20522;-74
2023/12/30 12:00:57;;;;;;;1999.90;999.90;;;13.60;99.90;;;;;;5047312;28;20026;-74
2023/12/30 12:03:23;;;;;;;1999.90;999.90;;;13.70;99.90;;;;;;5047578;28;20040;-74
2023/12/30 12:05:49;;;;;;;1999.90;999.90;;;13.70;99.90;;;;;;5036875;28;20041;-73